Flight Track Log - Related Links

Times and Time Zones

All times are in EDT time to prevent confusion due to time zone crossing. See the N30898 flight status page for this flight to view local times or setup timezone preferences in your user account.


Time Position Orientation Groundspeed Altitude Reporting Facility
EDT Latitude Longitude Course Direction KTS MPH feet Rate Location/Type
Tue 05:23:18 PM 35.9644 -83.9925 259° West 150 173 3,400  Level Atlanta Center
Tue 05:24:18 PM 35.9478 -84.0414 247° West 155 178 4,200 300 Climbing Atlanta Center
Tue 05:25:18 PM 35.9081 -84.0772 216° Southwest 162 186 4,000 350 Descending Atlanta Center
Tue 05:26:18 PM 35.8725 -84.1181 223° Southwest 173 199 4,900 1,050 Climbing Atlanta Center
Tue 05:27:18 PM 35.8664 -84.1694 262° West 167 192 6,100 1,200 Climbing Atlanta Center
Tue 05:28:00 PM 35.8579 -84.4986 259° West  Level FlightAware Approximate
Tue 05:28:18 PM 35.8619 -84.2283 265° West 162 186 7,300  Level Atlanta Center
Tue 05:29:18 PM 35.8558 -84.2847 262° West 168 193 8,300 1,050 Climbing Atlanta Center
Tue 05:30:18 PM 35.8494 -84.3411 262° West 168 193 9,400 800 Climbing Atlanta Center
Tue 05:31:18 PM 35.8428 -84.4000 262° West 168 193 9,900 300 Climbing Atlanta Center
Tue 05:32:18 PM 35.8364 -84.4614 263° West 178 205 10,000 600 Climbing Atlanta Center
Tue 05:33:18 PM 35.8300 -84.5228 263° West 183 211 11,100 1,100 Climbing Atlanta Center
Tue 05:34:18 PM 35.8233 -84.5869 263° West 183 211 12,200 1,150 Climbing Atlanta Center
Tue 05:35:18 PM 35.8169 -84.6483 263° West 183 211 13,400 900 Climbing Atlanta Center
Tue 05:36:18 PM 35.8103 -84.7097 262° West 183 211 14,000 350 Climbing Atlanta Center
Tue 05:37:18 PM 35.8036 -84.7814 263° West 191 220 14,100 50 Climbing Atlanta Center
Tue 05:38:18 PM 35.7928 -84.8528 259° West 206 237 14,100  Level Atlanta Center
Tue 05:39:18 PM 35.7858 -84.9347 264° West 219 252 14,100  Level Atlanta Center
Tue 05:40:55 PM 35.7739 -85.0506 263° West 219 252 14,100  Level Memphis Center
Tue 05:41:55 PM 35.7669 -85.1303 264° West 219 252 14,100  Level Memphis Center
Tue 05:42:55 PM 35.7597 -85.2050 263° West 219 252 14,100  Level Memphis Center
Tue 05:43:55 PM 35.7542 -85.2769 265° West 219 252 14,100  Level Memphis Center
Tue 05:44:55 PM 35.7531 -85.3511 269° West 219 252 14,100 -150 Level Memphis Center
Tue 05:45:55 PM 35.7706 -85.4242 286° West 219 252 13,800 -550 Descending Memphis Center
Tue 05:46:55 PM 35.7878 -85.4897 288° West 214 246 13,000 -800 Descending Memphis Center
Tue 05:47:55 PM 35.8031 -85.5606 285° West 214 246 12,200 -800 Descending Memphis Center
Tue 05:48:55 PM 35.8181 -85.6286 285° West 214 246 11,400 -800 Descending Memphis Center
Tue 05:49:55 PM 35.8314 -85.6997 283° West 219 252 10,600 -800 Descending Memphis Center
Tue 05:50:55 PM 35.8464 -85.7678 285° West 219 252 9,800 -800 Descending Memphis Center
Tue 05:51:55 PM 35.8614 -85.8336 286° West 219 252 9,000 -850 Descending Memphis Center
Tue 05:52:55 PM 35.8761 -85.8969 286° West 219 252 8,100 -850 Descending Memphis Center
Tue 05:53:55 PM 35.8908 -85.9628 285° West 209 241 7,300 -800 Descending Memphis Center
Tue 05:54:55 PM 35.9036 -86.0261 284° West 203 234 6,500 -800 Descending Memphis Center
Tue 05:55:55 PM 35.9183 -86.0894 286° West 196 226 5,700 -850 Descending Memphis Center
Tue 05:56:55 PM 35.9308 -86.1478 285° West 191 220 4,800 -900 Descending Memphis Center
Tue 05:57:55 PM 35.9433 -86.2111 284° West 181 208 3,900 -800 Descending Memphis Center
Tue 05:58:55 PM 35.9558 -86.2719 284° West 181 208 3,200 -450 Descending Memphis Center
Tue 05:59:55 PM 35.9617 -86.3231 278° West 174 200 3,000 -150 Descending Memphis Center
Tue 06:00:55 PM 35.9653 -86.3742 275° West 161 185 2,900 -550 Descending Memphis Center
Tue 06:01:55 PM 35.9544 -86.4261 256° West 161 185 1,900 -700 Descending Memphis Center
Tue 06:02:55 PM 35.9492 -86.4597 259° West 133 153 1,500 -157 Descending Memphis Center
Tue 06:04:28 PM 35.9833 -86.4667 351° North 121 139 1,500  Level Nashville TRACON

Login

Don't have an account? Register now (free) for customized features, flight alerts, and more!